<?xml version="1.0" encoding="UTF-8" standalone="no" ?>
<gpx xmlns="http://www.topografix.com/GPX/1/1" xmlns:xsi="http://www.w3.org/2001/XMLSchema-instance" xsi:schemaLocation="http://www.topografix.com/GPX/1/1 http://www.topografix.com/GPX/1/1/gpx.xsd" version="1.1" creator="VisuGPX - https://www.visugpx.com">
  <metadata>
    <name>Rivotte Echenoz-Saint-Paul Bregille Rue-Fabre Sarrail</name>
    <desc><![CDATA[<p>Heure de départ: 12/12/2018 10:26<br/>Heure d'arrivée: 12/12/2018 11:59<br/>Distance: 5,1 km (01:33)<br/>Temps déplacement: 01:13<br/>Vitesse moyenne: 3,29 km/h<br/>Vitesse moyenne mouv.: 4,16 km/h<br/>Vitesse Max.: 7,28 km/h<br/>Altitude minimale: 245 m<br/>Altitude maximale: 438 m<br/>Vitesse de montée: 270,1 m/h<br/>Vitesse de descente: -296,1 m/h<br/>Gain d'altitude: 216 m<br/>Perte d'altitude: -221 m<br/>Temps de montée: 00:48<br/>Temps de descente: 00:44<br/></p><hr align="center" width="480" style="height: 2px; width: 517px"/>]]></desc>
  </metadata>
  <wpt lat="47.23635" lon="6.029">
    <ele>263.79</ele>
    <name><![CDATA[0000306]]></name>
    <type><![CDATA[Point de départ]]></type>
  </wpt>
  <wpt lat="47.23624" lon="6.02922">
    <ele>257.09</ele>
    <name><![CDATA[0000307]]></name>
    <desc><![CDATA[<p><br /><h3>Nom: Segment: 1</h3><br />Heure de départ: 12/12/2018 10:26<br/>Heure d'arrivée: 12/12/2018 11:59<br/>Distance: 5,1km (01:33)<br/>Temps déplacement: 01:13<br/>Vitesse moyenne: 3,29 km/h<br/>Vitesse moyenne mouv.: 4,16 km/h<br/>Vitesse Max.: 7,28 km/h<br/>Altitude minimale: 245 m<br/>Altitude maximale: 438 m<br/>Vitesse de montée: 285,4 m/h<br/>Vitesse de descente: -330,8 m/h<br/>Gain d'altitude: 224 m<br/>Perte d'altitude: -230 m<br/>Temps de montée: 00:47<br/>Temps de descente: 00:41<br/></p>]]></desc>
    <type><![CDATA[Point d'arrivée]]></type>
  </wpt>
  <trk>
    <name><![CDATA[2018-12-12 10:26]]></name>
    <desc><![CDATA[<p>Heure de départ: 12/12/2018 10:26<br/>Heure d'arrivée: 12/12/2018 11:59<br/>Distance: 5,1 km (01:33)<br/>Temps déplacement: 01:13<br/>Vitesse moyenne: 3,29 km/h<br/>Vitesse moyenne mouv.: 4,16 km/h<br/>Vitesse Max.: 7,28 km/h<br/>Altitude minimale: 245 m<br/>Altitude maximale: 438 m<br/>Vitesse de montée: 270,1 m/h<br/>Vitesse de descente: -296,1 m/h<br/>Gain d'altitude: 216 m<br/>Perte d'altitude: -221 m<br/>Temps de montée: 00:48<br/>Temps de descente: 00:44<br/></p><hr align="center" width="480" style="height: 2px; width: 517px"/>]]></desc>
    <trkseg>
      <trkpt lat="47.23635" lon="6.029">
        <ele>263.79</ele>
        <time>2018-12-12T09:26:17Z</time>
      </trkpt>
      <trkpt lat="47.23623" lon="6.02921">
        <ele>258.49</ele>
        <time>2018-12-12T09:26:44Z</time>
      </trkpt>
      <trkpt lat="47.23612" lon="6.02942">
        <ele>256.49</ele>
        <time>2018-12-12T09:26:57Z</time>
      </trkpt>
      <trkpt lat="47.23612" lon="6.0297">
        <ele>257.7</ele>
        <time>2018-12-12T09:27:09Z</time>
      </trkpt>
      <trkpt lat="47.23611" lon="6.02998">
        <ele>257.87</ele>
        <time>2018-12-12T09:27:23Z</time>
      </trkpt>
      <trkpt lat="47.23603" lon="6.03024">
        <ele>258.86</ele>
        <time>2018-12-12T09:27:40Z</time>
      </trkpt>
      <trkpt lat="47.23594" lon="6.03048">
        <ele>256.8</ele>
        <time>2018-12-12T09:27:52Z</time>
      </trkpt>
      <trkpt lat="47.23586" lon="6.03072">
        <ele>254.79</ele>
        <time>2018-12-12T09:28:07Z</time>
      </trkpt>
      <trkpt lat="47.23575" lon="6.03095">
        <ele>252.82</ele>
        <time>2018-12-12T09:28:19Z</time>
      </trkpt>
      <trkpt lat="47.23561" lon="6.03113">
        <ele>252.87</ele>
        <time>2018-12-12T09:28:33Z</time>
      </trkpt>
      <trkpt lat="47.23546" lon="6.03128">
        <ele>250.09</ele>
        <time>2018-12-12T09:28:47Z</time>
      </trkpt>
      <trkpt lat="47.23533" lon="6.03149">
        <ele>246.82</ele>
        <time>2018-12-12T09:29:00Z</time>
      </trkpt>
      <trkpt lat="47.23517" lon="6.03161">
        <ele>248.79</ele>
        <time>2018-12-12T09:29:12Z</time>
      </trkpt>
      <trkpt lat="47.23502" lon="6.03179">
        <ele>251.49</ele>
        <time>2018-12-12T09:29:26Z</time>
      </trkpt>
      <trkpt lat="47.2349" lon="6.032">
        <ele>249.79</ele>
        <time>2018-12-12T09:29:40Z</time>
      </trkpt>
      <trkpt lat="47.23481" lon="6.03223">
        <ele>250.79</ele>
        <time>2018-12-12T09:29:52Z</time>
      </trkpt>
      <trkpt lat="47.23475" lon="6.03249">
        <ele>252.78</ele>
        <time>2018-12-12T09:30:03Z</time>
      </trkpt>
      <trkpt lat="47.23469" lon="6.03274">
        <ele>252.09</ele>
        <time>2018-12-12T09:30:15Z</time>
      </trkpt>
      <trkpt lat="47.23462" lon="6.033">
        <ele>252.79</ele>
        <time>2018-12-12T09:30:29Z</time>
      </trkpt>
      <trkpt lat="47.23447" lon="6.03318">
        <ele>251.73</ele>
        <time>2018-12-12T09:30:42Z</time>
      </trkpt>
      <trkpt lat="47.23429" lon="6.03327">
        <ele>250.73</ele>
        <time>2018-12-12T09:30:58Z</time>
      </trkpt>
      <trkpt lat="47.23417" lon="6.03349">
        <ele>252.12</ele>
        <time>2018-12-12T09:31:14Z</time>
      </trkpt>
      <trkpt lat="47.234" lon="6.0336">
        <ele>254.78</ele>
        <time>2018-12-12T09:31:34Z</time>
      </trkpt>
      <trkpt lat="47.23386" lon="6.03376">
        <ele>250.88</ele>
        <time>2018-12-12T09:31:46Z</time>
      </trkpt>
      <trkpt lat="47.23368" lon="6.03384">
        <ele>251.7</ele>
        <time>2018-12-12T09:31:56Z</time>
      </trkpt>
      <trkpt lat="47.23351" lon="6.03394">
        <ele>250.79</ele>
        <time>2018-12-12T09:32:11Z</time>
      </trkpt>
      <trkpt lat="47.23335" lon="6.03409">
        <ele>250.79</ele>
        <time>2018-12-12T09:32:25Z</time>
      </trkpt>
      <trkpt lat="47.23318" lon="6.03419">
        <ele>250.79</ele>
        <time>2018-12-12T09:32:39Z</time>
      </trkpt>
      <trkpt lat="47.23302" lon="6.0343">
        <ele>250.79</ele>
        <time>2018-12-12T09:32:52Z</time>
      </trkpt>
      <trkpt lat="47.23285" lon="6.03443">
        <ele>250.79</ele>
        <time>2018-12-12T09:33:08Z</time>
      </trkpt>
      <trkpt lat="47.2327" lon="6.03456">
        <ele>252.11</ele>
        <time>2018-12-12T09:33:18Z</time>
      </trkpt>
      <trkpt lat="47.23252" lon="6.03467">
        <ele>249.85</ele>
        <time>2018-12-12T09:33:33Z</time>
      </trkpt>
      <trkpt lat="47.23237" lon="6.03481">
        <ele>251.81</ele>
        <time>2018-12-12T09:33:47Z</time>
      </trkpt>
      <trkpt lat="47.23219" lon="6.03493">
        <ele>251.79</ele>
        <time>2018-12-12T09:34:02Z</time>
      </trkpt>
      <trkpt lat="47.23204" lon="6.03507">
        <ele>250.82</ele>
        <time>2018-12-12T09:34:17Z</time>
      </trkpt>
      <trkpt lat="47.23189" lon="6.03523">
        <ele>252.76</ele>
        <time>2018-12-12T09:34:53Z</time>
      </trkpt>
      <trkpt lat="47.23173" lon="6.03536">
        <ele>252.78</ele>
        <time>2018-12-12T09:35:07Z</time>
      </trkpt>
      <trkpt lat="47.23158" lon="6.03549">
        <ele>253.79</ele>
        <time>2018-12-12T09:35:20Z</time>
      </trkpt>
      <trkpt lat="47.23151" lon="6.03575">
        <ele>253.8</ele>
        <time>2018-12-12T09:35:34Z</time>
      </trkpt>
      <trkpt lat="47.23138" lon="6.03594">
        <ele>252.78</ele>
        <time>2018-12-12T09:35:51Z</time>
      </trkpt>
      <trkpt lat="47.23128" lon="6.03617">
        <ele>252.88</ele>
        <time>2018-12-12T09:36:05Z</time>
      </trkpt>
      <trkpt lat="47.23117" lon="6.03639">
        <ele>249.8</ele>
        <time>2018-12-12T09:36:18Z</time>
      </trkpt>
      <trkpt lat="47.23103" lon="6.03659">
        <ele>248.79</ele>
        <time>2018-12-12T09:36:32Z</time>
      </trkpt>
      <trkpt lat="47.23088" lon="6.03675">
        <ele>247.81</ele>
        <time>2018-12-12T09:36:47Z</time>
      </trkpt>
      <trkpt lat="47.23072" lon="6.03688">
        <ele>247.09</ele>
        <time>2018-12-12T09:37:00Z</time>
      </trkpt>
      <trkpt lat="47.23056" lon="6.03701">
        <ele>246.79</ele>
        <time>2018-12-12T09:37:14Z</time>
      </trkpt>
      <trkpt lat="47.2304" lon="6.03714">
        <ele>246.79</ele>
        <time>2018-12-12T09:37:28Z</time>
      </trkpt>
      <trkpt lat="47.23024" lon="6.03727">
        <ele>246.76</ele>
        <time>2018-12-12T09:37:41Z</time>
      </trkpt>
      <trkpt lat="47.23008" lon="6.03742">
        <ele>247.7</ele>
        <time>2018-12-12T09:37:54Z</time>
      </trkpt>
      <trkpt lat="47.22991" lon="6.03754">
        <ele>248.52</ele>
        <time>2018-12-12T09:38:08Z</time>
      </trkpt>
      <trkpt lat="47.22975" lon="6.03766">
        <ele>246.79</ele>
        <time>2018-12-12T09:38:22Z</time>
      </trkpt>
      <trkpt lat="47.22959" lon="6.03782">
        <ele>245.8</ele>
        <time>2018-12-12T09:38:37Z</time>
      </trkpt>
      <trkpt lat="47.22944" lon="6.03796">
        <ele>247.76</ele>
        <time>2018-12-12T09:38:50Z</time>
      </trkpt>
      <trkpt lat="47.22928" lon="6.0381">
        <ele>247.09</ele>
        <time>2018-12-12T09:39:04Z</time>
      </trkpt>
      <trkpt lat="47.22912" lon="6.03822">
        <ele>247.79</ele>
        <time>2018-12-12T09:39:17Z</time>
      </trkpt>
      <trkpt lat="47.22895" lon="6.03835">
        <ele>248.81</ele>
        <time>2018-12-12T09:39:30Z</time>
      </trkpt>
      <trkpt lat="47.22879" lon="6.03849">
        <ele>249.82</ele>
        <time>2018-12-12T09:39:44Z</time>
      </trkpt>
      <trkpt lat="47.22861" lon="6.03859">
        <ele>247.7</ele>
        <time>2018-12-12T09:39:59Z</time>
      </trkpt>
      <trkpt lat="47.22843" lon="6.03865">
        <ele>247.87</ele>
        <time>2018-12-12T09:40:11Z</time>
      </trkpt>
      <trkpt lat="47.22826" lon="6.03873">
        <ele>248.79</ele>
        <time>2018-12-12T09:40:24Z</time>
      </trkpt>
      <trkpt lat="47.22808" lon="6.03884">
        <ele>248.81</ele>
        <time>2018-12-12T09:40:39Z</time>
      </trkpt>
      <trkpt lat="47.22791" lon="6.03896">
        <ele>247.79</ele>
        <time>2018-12-12T09:40:52Z</time>
      </trkpt>
      <trkpt lat="47.22773" lon="6.03895">
        <ele>248.79</ele>
        <time>2018-12-12T09:41:17Z</time>
      </trkpt>
      <trkpt lat="47.22778" lon="6.03923">
        <ele>251.79</ele>
        <time>2018-12-12T09:41:57Z</time>
      </trkpt>
      <trkpt lat="47.22789" lon="6.03946">
        <ele>251.79</ele>
        <time>2018-12-12T09:43:24Z</time>
      </trkpt>
      <trkpt lat="47.22799" lon="6.03969">
        <ele>251.09</ele>
        <time>2018-12-12T09:43:39Z</time>
      </trkpt>
      <trkpt lat="47.22809" lon="6.03991">
        <ele>253.79</ele>
        <time>2018-12-12T09:44:33Z</time>
      </trkpt>
      <trkpt lat="47.22818" lon="6.04014">
        <ele>254.71</ele>
        <time>2018-12-12T09:44:48Z</time>
      </trkpt>
      <trkpt lat="47.22829" lon="6.04036">
        <ele>254.49</ele>
        <time>2018-12-12T09:45:04Z</time>
      </trkpt>
      <trkpt lat="47.22841" lon="6.04055">
        <ele>256.78</ele>
        <time>2018-12-12T09:45:19Z</time>
      </trkpt>
      <trkpt lat="47.22852" lon="6.04078">
        <ele>258.49</ele>
        <time>2018-12-12T09:45:32Z</time>
      </trkpt>
      <trkpt lat="47.22862" lon="6.04101">
        <ele>253.82</ele>
        <time>2018-12-12T09:45:47Z</time>
      </trkpt>
      <trkpt lat="47.22872" lon="6.04123">
        <ele>251.8</ele>
        <time>2018-12-12T09:46:00Z</time>
      </trkpt>
      <trkpt lat="47.22885" lon="6.04144">
        <ele>246.82</ele>
        <time>2018-12-12T09:46:14Z</time>
      </trkpt>
      <trkpt lat="47.22892" lon="6.04169">
        <ele>248.49</ele>
        <time>2018-12-12T09:46:28Z</time>
      </trkpt>
      <trkpt lat="47.22901" lon="6.04192">
        <ele>248.79</ele>
        <time>2018-12-12T09:46:43Z</time>
      </trkpt>
      <trkpt lat="47.22908" lon="6.04217">
        <ele>250.7</ele>
        <time>2018-12-12T09:47:00Z</time>
      </trkpt>
      <trkpt lat="47.22919" lon="6.0424">
        <ele>255.7</ele>
        <time>2018-12-12T09:48:01Z</time>
      </trkpt>
      <trkpt lat="47.22907" lon="6.04261">
        <ele>254.79</ele>
        <time>2018-12-12T09:48:28Z</time>
      </trkpt>
      <trkpt lat="47.22906" lon="6.04288">
        <ele>257.09</ele>
        <time>2018-12-12T09:48:54Z</time>
      </trkpt>
      <trkpt lat="47.22918" lon="6.04309">
        <ele>258.79</ele>
        <time>2018-12-12T09:49:10Z</time>
      </trkpt>
      <trkpt lat="47.22931" lon="6.04328">
        <ele>260.79</ele>
        <time>2018-12-12T09:49:27Z</time>
      </trkpt>
      <trkpt lat="47.22946" lon="6.04345">
        <ele>262.73</ele>
        <time>2018-12-12T09:49:45Z</time>
      </trkpt>
      <trkpt lat="47.22958" lon="6.04366">
        <ele>263.79</ele>
        <time>2018-12-12T09:50:03Z</time>
      </trkpt>
      <trkpt lat="47.22971" lon="6.04386">
        <ele>266.78</ele>
        <time>2018-12-12T09:50:20Z</time>
      </trkpt>
      <trkpt lat="47.22982" lon="6.04408">
        <ele>266</ele>
        <time>2018-12-12T09:50:39Z</time>
      </trkpt>
      <trkpt lat="47.22993" lon="6.0443">
        <ele>269.79</ele>
        <time>2018-12-12T09:50:56Z</time>
      </trkpt>
      <trkpt lat="47.23003" lon="6.04452">
        <ele>271.79</ele>
        <time>2018-12-12T09:51:14Z</time>
      </trkpt>
      <trkpt lat="47.23013" lon="6.04475">
        <ele>275.76</ele>
        <time>2018-12-12T09:51:32Z</time>
      </trkpt>
      <trkpt lat="47.23025" lon="6.04495">
        <ele>278.79</ele>
        <time>2018-12-12T09:51:52Z</time>
      </trkpt>
      <trkpt lat="47.23036" lon="6.04518">
        <ele>280.51</ele>
        <time>2018-12-12T09:52:11Z</time>
      </trkpt>
      <trkpt lat="47.23045" lon="6.04541">
        <ele>283.79</ele>
        <time>2018-12-12T09:52:31Z</time>
      </trkpt>
      <trkpt lat="47.23054" lon="6.04566">
        <ele>287.79</ele>
        <time>2018-12-12T09:52:55Z</time>
      </trkpt>
      <trkpt lat="47.23064" lon="6.04589">
        <ele>294.79</ele>
        <time>2018-12-12T09:53:19Z</time>
      </trkpt>
      <trkpt lat="47.23074" lon="6.04612">
        <ele>296.7</ele>
        <time>2018-12-12T09:53:42Z</time>
      </trkpt>
      <trkpt lat="47.23085" lon="6.04635">
        <ele>300.79</ele>
        <time>2018-12-12T09:54:07Z</time>
      </trkpt>
      <trkpt lat="47.23094" lon="6.04659">
        <ele>302.49</ele>
        <time>2018-12-12T09:54:31Z</time>
      </trkpt>
      <trkpt lat="47.23105" lon="6.04679">
        <ele>307.49</ele>
        <time>2018-12-12T09:54:55Z</time>
      </trkpt>
      <trkpt lat="47.23111" lon="6.04705">
        <ele>311.7</ele>
        <time>2018-12-12T09:55:21Z</time>
      </trkpt>
      <trkpt lat="47.23122" lon="6.04727">
        <ele>314.79</ele>
        <time>2018-12-12T09:55:45Z</time>
      </trkpt>
      <trkpt lat="47.23131" lon="6.0475">
        <ele>319.67</ele>
        <time>2018-12-12T09:56:06Z</time>
      </trkpt>
      <trkpt lat="47.23142" lon="6.04773">
        <ele>322.06</ele>
        <time>2018-12-12T09:56:33Z</time>
      </trkpt>
      <trkpt lat="47.23152" lon="6.04795">
        <ele>325.49</ele>
        <time>2018-12-12T09:56:59Z</time>
      </trkpt>
      <trkpt lat="47.23149" lon="6.04823">
        <ele>333.76</ele>
        <time>2018-12-12T09:58:25Z</time>
      </trkpt>
      <trkpt lat="47.23152" lon="6.04849">
        <ele>340.76</ele>
        <time>2018-12-12T09:59:07Z</time>
      </trkpt>
      <trkpt lat="47.23159" lon="6.04873">
        <ele>343.88</ele>
        <time>2018-12-12T09:59:42Z</time>
      </trkpt>
      <trkpt lat="47.23166" lon="6.04898">
        <ele>348.79</ele>
        <time>2018-12-12T10:00:11Z</time>
      </trkpt>
      <trkpt lat="47.23173" lon="6.04923">
        <ele>351.52</ele>
        <time>2018-12-12T10:00:39Z</time>
      </trkpt>
      <trkpt lat="47.23185" lon="6.04943">
        <ele>355.79</ele>
        <time>2018-12-12T10:01:25Z</time>
      </trkpt>
      <trkpt lat="47.23196" lon="6.04965">
        <ele>355.81</ele>
        <time>2018-12-12T10:01:42Z</time>
      </trkpt>
      <trkpt lat="47.23208" lon="6.04987">
        <ele>355.79</ele>
        <time>2018-12-12T10:02:00Z</time>
      </trkpt>
      <trkpt lat="47.23225" lon="6.04998">
        <ele>358.49</ele>
        <time>2018-12-12T10:02:16Z</time>
      </trkpt>
      <trkpt lat="47.23244" lon="6.04996">
        <ele>358.76</ele>
        <time>2018-12-12T10:02:53Z</time>
      </trkpt>
      <trkpt lat="47.23259" lon="6.04981">
        <ele>360.7</ele>
        <time>2018-12-12T10:03:09Z</time>
      </trkpt>
      <trkpt lat="47.23272" lon="6.04961">
        <ele>361.09</ele>
        <time>2018-12-12T10:03:24Z</time>
      </trkpt>
      <trkpt lat="47.23285" lon="6.04944">
        <ele>361.07</ele>
        <time>2018-12-12T10:03:39Z</time>
      </trkpt>
      <trkpt lat="47.23298" lon="6.04925">
        <ele>360.76</ele>
        <time>2018-12-12T10:03:56Z</time>
      </trkpt>
      <trkpt lat="47.23308" lon="6.04902">
        <ele>362.76</ele>
        <time>2018-12-12T10:04:33Z</time>
      </trkpt>
      <trkpt lat="47.23319" lon="6.04881">
        <ele>364.87</ele>
        <time>2018-12-12T10:04:50Z</time>
      </trkpt>
      <trkpt lat="47.23327" lon="6.04906">
        <ele>370.79</ele>
        <time>2018-12-12T10:05:38Z</time>
      </trkpt>
      <trkpt lat="47.23324" lon="6.04933">
        <ele>371.79</ele>
        <time>2018-12-12T10:05:58Z</time>
      </trkpt>
      <trkpt lat="47.23321" lon="6.04959">
        <ele>373.76</ele>
        <time>2018-12-12T10:06:16Z</time>
      </trkpt>
      <trkpt lat="47.23319" lon="6.04986">
        <ele>375.7</ele>
        <time>2018-12-12T10:06:36Z</time>
      </trkpt>
      <trkpt lat="47.23334" lon="6.05002">
        <ele>377.8</ele>
        <time>2018-12-12T10:07:02Z</time>
      </trkpt>
      <trkpt lat="47.23352" lon="6.04999">
        <ele>383.76</ele>
        <time>2018-12-12T10:07:25Z</time>
      </trkpt>
      <trkpt lat="47.23368" lon="6.05015">
        <ele>384.79</ele>
        <time>2018-12-12T10:08:00Z</time>
      </trkpt>
      <trkpt lat="47.23377" lon="6.05038">
        <ele>388.76</ele>
        <time>2018-12-12T10:08:18Z</time>
      </trkpt>
      <trkpt lat="47.23391" lon="6.0502">
        <ele>390.49</ele>
        <time>2018-12-12T10:09:38Z</time>
      </trkpt>
      <trkpt lat="47.23406" lon="6.05004">
        <ele>392.79</ele>
        <time>2018-12-12T10:09:58Z</time>
      </trkpt>
      <trkpt lat="47.23412" lon="6.04979">
        <ele>395.09</ele>
        <time>2018-12-12T10:10:20Z</time>
      </trkpt>
      <trkpt lat="47.23411" lon="6.04952">
        <ele>398.79</ele>
        <time>2018-12-12T10:10:46Z</time>
      </trkpt>
      <trkpt lat="47.23411" lon="6.04925">
        <ele>399.82</ele>
        <time>2018-12-12T10:11:03Z</time>
      </trkpt>
      <trkpt lat="47.23413" lon="6.04898">
        <ele>401.78</ele>
        <time>2018-12-12T10:11:20Z</time>
      </trkpt>
      <trkpt lat="47.23419" lon="6.04871">
        <ele>402.79</ele>
        <time>2018-12-12T10:11:38Z</time>
      </trkpt>
      <trkpt lat="47.23432" lon="6.04852">
        <ele>405.7</ele>
        <time>2018-12-12T10:11:59Z</time>
      </trkpt>
      <trkpt lat="47.23449" lon="6.04842">
        <ele>411.79</ele>
        <time>2018-12-12T10:12:43Z</time>
      </trkpt>
      <trkpt lat="47.23466" lon="6.04852">
        <ele>412.77</ele>
        <time>2018-12-12T10:13:18Z</time>
      </trkpt>
      <trkpt lat="47.23484" lon="6.04859">
        <ele>417.78</ele>
        <time>2018-12-12T10:13:39Z</time>
      </trkpt>
      <trkpt lat="47.23502" lon="6.04866">
        <ele>421.06</ele>
        <time>2018-12-12T10:13:57Z</time>
      </trkpt>
      <trkpt lat="47.23505" lon="6.04839">
        <ele>423.18</ele>
        <time>2018-12-12T10:14:23Z</time>
      </trkpt>
      <trkpt lat="47.23501" lon="6.04813">
        <ele>423.71</ele>
        <time>2018-12-12T10:14:51Z</time>
      </trkpt>
      <trkpt lat="47.23484" lon="6.04798">
        <ele>425.79</ele>
        <time>2018-12-12T10:15:11Z</time>
      </trkpt>
      <trkpt lat="47.23472" lon="6.04778">
        <ele>427.76</ele>
        <time>2018-12-12T10:15:35Z</time>
      </trkpt>
      <trkpt lat="47.23464" lon="6.04753">
        <ele>426.08</ele>
        <time>2018-12-12T10:16:20Z</time>
      </trkpt>
      <trkpt lat="47.23465" lon="6.04726">
        <ele>428.7</ele>
        <time>2018-12-12T10:16:41Z</time>
      </trkpt>
      <trkpt lat="47.23463" lon="6.04698">
        <ele>431.79</ele>
        <time>2018-12-12T10:17:05Z</time>
      </trkpt>
      <trkpt lat="47.23464" lon="6.0467">
        <ele>432.79</ele>
        <time>2018-12-12T10:17:23Z</time>
      </trkpt>
      <trkpt lat="47.23457" lon="6.04645">
        <ele>434.76</ele>
        <time>2018-12-12T10:17:43Z</time>
      </trkpt>
      <trkpt lat="47.23458" lon="6.04618">
        <ele>436.79</ele>
        <time>2018-12-12T10:18:08Z</time>
      </trkpt>
      <trkpt lat="47.23469" lon="6.04596">
        <ele>436.82</ele>
        <time>2018-12-12T10:18:40Z</time>
      </trkpt>
      <trkpt lat="47.23484" lon="6.04579">
        <ele>437.78</ele>
        <time>2018-12-12T10:18:57Z</time>
      </trkpt>
      <trkpt lat="47.235" lon="6.04568">
        <ele>436.85</ele>
        <time>2018-12-12T10:19:13Z</time>
      </trkpt>
      <trkpt lat="47.23515" lon="6.04552">
        <ele>436.8</ele>
        <time>2018-12-12T10:19:29Z</time>
      </trkpt>
      <trkpt lat="47.23532" lon="6.0454">
        <ele>437.09</ele>
        <time>2018-12-12T10:19:46Z</time>
      </trkpt>
      <trkpt lat="47.23546" lon="6.04521">
        <ele>435.87</ele>
        <time>2018-12-12T10:20:03Z</time>
      </trkpt>
      <trkpt lat="47.23562" lon="6.04509">
        <ele>436.78</ele>
        <time>2018-12-12T10:20:20Z</time>
      </trkpt>
      <trkpt lat="47.2358" lon="6.04502">
        <ele>436.49</ele>
        <time>2018-12-12T10:20:48Z</time>
      </trkpt>
      <trkpt lat="47.23598" lon="6.04498">
        <ele>436.79</ele>
        <time>2018-12-12T10:21:06Z</time>
      </trkpt>
      <trkpt lat="47.23616" lon="6.04495">
        <ele>437.79</ele>
        <time>2018-12-12T10:21:21Z</time>
      </trkpt>
      <trkpt lat="47.23628" lon="6.04474">
        <ele>438.48</ele>
        <time>2018-12-12T10:21:50Z</time>
      </trkpt>
      <trkpt lat="47.2362" lon="6.04449">
        <ele>436.82</ele>
        <time>2018-12-12T10:22:06Z</time>
      </trkpt>
      <trkpt lat="47.23612" lon="6.04424">
        <ele>436.79</ele>
        <time>2018-12-12T10:22:21Z</time>
      </trkpt>
      <trkpt lat="47.23602" lon="6.04401">
        <ele>437.82</ele>
        <time>2018-12-12T10:22:36Z</time>
      </trkpt>
      <trkpt lat="47.23591" lon="6.04379">
        <ele>437.81</ele>
        <time>2018-12-12T10:22:51Z</time>
      </trkpt>
      <trkpt lat="47.2359" lon="6.04352">
        <ele>433.73</ele>
        <time>2018-12-12T10:23:18Z</time>
      </trkpt>
      <trkpt lat="47.23591" lon="6.04325">
        <ele>434.09</ele>
        <time>2018-12-12T10:23:41Z</time>
      </trkpt>
      <trkpt lat="47.23588" lon="6.04297">
        <ele>434.79</ele>
        <time>2018-12-12T10:24:04Z</time>
      </trkpt>
      <trkpt lat="47.23586" lon="6.0427">
        <ele>433.86</ele>
        <time>2018-12-12T10:24:19Z</time>
      </trkpt>
      <trkpt lat="47.23586" lon="6.04243">
        <ele>433.12</ele>
        <time>2018-12-12T10:24:38Z</time>
      </trkpt>
      <trkpt lat="47.236" lon="6.04224">
        <ele>430.79</ele>
        <time>2018-12-12T10:24:57Z</time>
      </trkpt>
      <trkpt lat="47.23582" lon="6.04218">
        <ele>425.79</ele>
        <time>2018-12-12T10:25:37Z</time>
      </trkpt>
      <trkpt lat="47.23565" lon="6.04205">
        <ele>426.09</ele>
        <time>2018-12-12T10:25:56Z</time>
      </trkpt>
      <trkpt lat="47.23547" lon="6.04201">
        <ele>427.58</ele>
        <time>2018-12-12T10:26:17Z</time>
      </trkpt>
      <trkpt lat="47.23528" lon="6.04196">
        <ele>425.27</ele>
        <time>2018-12-12T10:26:38Z</time>
      </trkpt>
      <trkpt lat="47.2351" lon="6.04202">
        <ele>426.79</ele>
        <time>2018-12-12T10:26:55Z</time>
      </trkpt>
      <trkpt lat="47.23492" lon="6.04206">
        <ele>424.82</ele>
        <time>2018-12-12T10:27:40Z</time>
      </trkpt>
      <trkpt lat="47.23497" lon="6.0418">
        <ele>422.79</ele>
        <time>2018-12-12T10:29:16Z</time>
      </trkpt>
      <trkpt lat="47.23507" lon="6.04158">
        <ele>422.81</ele>
        <time>2018-12-12T10:29:43Z</time>
      </trkpt>
      <trkpt lat="47.23523" lon="6.04143">
        <ele>417.87</ele>
        <time>2018-12-12T10:30:07Z</time>
      </trkpt>
      <trkpt lat="47.23537" lon="6.04124">
        <ele>415.77</ele>
        <time>2018-12-12T10:30:26Z</time>
      </trkpt>
      <trkpt lat="47.2355" lon="6.04105">
        <ele>411.8</ele>
        <time>2018-12-12T10:30:50Z</time>
      </trkpt>
      <trkpt lat="47.23563" lon="6.04085">
        <ele>408.8</ele>
        <time>2018-12-12T10:31:12Z</time>
      </trkpt>
      <trkpt lat="47.23579" lon="6.04067">
        <ele>405.1</ele>
        <time>2018-12-12T10:31:34Z</time>
      </trkpt>
      <trkpt lat="47.23595" lon="6.04054">
        <ele>401.09</ele>
        <time>2018-12-12T10:31:51Z</time>
      </trkpt>
      <trkpt lat="47.23611" lon="6.04039">
        <ele>396.52</ele>
        <time>2018-12-12T10:32:08Z</time>
      </trkpt>
      <trkpt lat="47.23628" lon="6.04026">
        <ele>392.49</ele>
        <time>2018-12-12T10:32:37Z</time>
      </trkpt>
      <trkpt lat="47.23634" lon="6.04001">
        <ele>385.82</ele>
        <time>2018-12-12T10:33:43Z</time>
      </trkpt>
      <trkpt lat="47.23654" lon="6.04015">
        <ele>380.79</ele>
        <time>2018-12-12T10:34:10Z</time>
      </trkpt>
      <trkpt lat="47.23667" lon="6.03995">
        <ele>374.18</ele>
        <time>2018-12-12T10:34:48Z</time>
      </trkpt>
      <trkpt lat="47.23686" lon="6.04">
        <ele>368.79</ele>
        <time>2018-12-12T10:35:22Z</time>
      </trkpt>
      <trkpt lat="47.237" lon="6.04016">
        <ele>363.09</ele>
        <time>2018-12-12T10:35:41Z</time>
      </trkpt>
      <trkpt lat="47.23716" lon="6.04032">
        <ele>361.88</ele>
        <time>2018-12-12T10:35:59Z</time>
      </trkpt>
      <trkpt lat="47.23732" lon="6.04044">
        <ele>357.1</ele>
        <time>2018-12-12T10:36:21Z</time>
      </trkpt>
      <trkpt lat="47.23749" lon="6.04054">
        <ele>353.81</ele>
        <time>2018-12-12T10:36:38Z</time>
      </trkpt>
      <trkpt lat="47.23765" lon="6.04066">
        <ele>352.79</ele>
        <time>2018-12-12T10:36:53Z</time>
      </trkpt>
      <trkpt lat="47.2378" lon="6.04051">
        <ele>342.1</ele>
        <time>2018-12-12T10:37:40Z</time>
      </trkpt>
      <trkpt lat="47.23784" lon="6.04025">
        <ele>333.89</ele>
        <time>2018-12-12T10:38:23Z</time>
      </trkpt>
      <trkpt lat="47.238" lon="6.04013">
        <ele>320.89</ele>
        <time>2018-12-12T10:39:02Z</time>
      </trkpt>
      <trkpt lat="47.23804" lon="6.03986">
        <ele>311.09</ele>
        <time>2018-12-12T10:39:40Z</time>
      </trkpt>
      <trkpt lat="47.23821" lon="6.03975">
        <ele>300.8</ele>
        <time>2018-12-12T10:40:25Z</time>
      </trkpt>
      <trkpt lat="47.23826" lon="6.03949">
        <ele>295.87</ele>
        <time>2018-12-12T10:40:58Z</time>
      </trkpt>
      <trkpt lat="47.23838" lon="6.03928">
        <ele>293.09</ele>
        <time>2018-12-12T10:41:27Z</time>
      </trkpt>
      <trkpt lat="47.23847" lon="6.03905">
        <ele>280.79</ele>
        <time>2018-12-12T10:42:23Z</time>
      </trkpt>
      <trkpt lat="47.23857" lon="6.03883">
        <ele>275.8</ele>
        <time>2018-12-12T10:42:48Z</time>
      </trkpt>
      <trkpt lat="47.23873" lon="6.03894">
        <ele>273.88</ele>
        <time>2018-12-12T10:43:23Z</time>
      </trkpt>
      <trkpt lat="47.23892" lon="6.03895">
        <ele>275.76</ele>
        <time>2018-12-12T10:43:40Z</time>
      </trkpt>
      <trkpt lat="47.23907" lon="6.0391">
        <ele>276.77</ele>
        <time>2018-12-12T10:43:54Z</time>
      </trkpt>
      <trkpt lat="47.23918" lon="6.03888">
        <ele>271.88</ele>
        <time>2018-12-12T10:44:15Z</time>
      </trkpt>
      <trkpt lat="47.23916" lon="6.0386">
        <ele>269.78</ele>
        <time>2018-12-12T10:44:30Z</time>
      </trkpt>
      <trkpt lat="47.23916" lon="6.03832">
        <ele>269.79</ele>
        <time>2018-12-12T10:44:45Z</time>
      </trkpt>
      <trkpt lat="47.23917" lon="6.03804">
        <ele>266.09</ele>
        <time>2018-12-12T10:45:01Z</time>
      </trkpt>
      <trkpt lat="47.23915" lon="6.03777">
        <ele>264.88</ele>
        <time>2018-12-12T10:45:16Z</time>
      </trkpt>
      <trkpt lat="47.23917" lon="6.0375">
        <ele>261.8</ele>
        <time>2018-12-12T10:45:34Z</time>
      </trkpt>
      <trkpt lat="47.2391" lon="6.03725">
        <ele>260.79</ele>
        <time>2018-12-12T10:45:49Z</time>
      </trkpt>
      <trkpt lat="47.23903" lon="6.037">
        <ele>257.85</ele>
        <time>2018-12-12T10:46:06Z</time>
      </trkpt>
      <trkpt lat="47.23898" lon="6.03674">
        <ele>258.5</ele>
        <time>2018-12-12T10:46:22Z</time>
      </trkpt>
      <trkpt lat="47.23898" lon="6.03646">
        <ele>256.88</ele>
        <time>2018-12-12T10:46:39Z</time>
      </trkpt>
      <trkpt lat="47.23899" lon="6.03619">
        <ele>256.79</ele>
        <time>2018-12-12T10:46:55Z</time>
      </trkpt>
      <trkpt lat="47.23899" lon="6.03592">
        <ele>254.73</ele>
        <time>2018-12-12T10:47:10Z</time>
      </trkpt>
      <trkpt lat="47.23891" lon="6.03569">
        <ele>248.79</ele>
        <time>2018-12-12T10:48:08Z</time>
      </trkpt>
      <trkpt lat="47.23884" lon="6.03543">
        <ele>252.72</ele>
        <time>2018-12-12T10:48:31Z</time>
      </trkpt>
      <trkpt lat="47.23877" lon="6.03519">
        <ele>252.79</ele>
        <time>2018-12-12T10:48:49Z</time>
      </trkpt>
      <trkpt lat="47.2387" lon="6.03492">
        <ele>252.79</ele>
        <time>2018-12-12T10:49:06Z</time>
      </trkpt>
      <trkpt lat="47.23864" lon="6.03467">
        <ele>249.88</ele>
        <time>2018-12-12T10:49:22Z</time>
      </trkpt>
      <trkpt lat="47.23854" lon="6.03444">
        <ele>250.03</ele>
        <time>2018-12-12T10:49:40Z</time>
      </trkpt>
      <trkpt lat="47.23837" lon="6.03435">
        <ele>249.49</ele>
        <time>2018-12-12T10:49:55Z</time>
      </trkpt>
      <trkpt lat="47.23828" lon="6.03411">
        <ele>248.79</ele>
        <time>2018-12-12T10:50:15Z</time>
      </trkpt>
      <trkpt lat="47.23834" lon="6.03384">
        <ele>249.85</ele>
        <time>2018-12-12T10:50:48Z</time>
      </trkpt>
      <trkpt lat="47.23826" lon="6.03359">
        <ele>249.88</ele>
        <time>2018-12-12T10:51:04Z</time>
      </trkpt>
      <trkpt lat="47.23818" lon="6.03335">
        <ele>250.7</ele>
        <time>2018-12-12T10:51:22Z</time>
      </trkpt>
      <trkpt lat="47.23818" lon="6.03308">
        <ele>245.82</ele>
        <time>2018-12-12T10:52:55Z</time>
      </trkpt>
      <trkpt lat="47.2381" lon="6.03284">
        <ele>247.79</ele>
        <time>2018-12-12T10:53:09Z</time>
      </trkpt>
      <trkpt lat="47.23801" lon="6.0326">
        <ele>250.76</ele>
        <time>2018-12-12T10:53:24Z</time>
      </trkpt>
      <trkpt lat="47.23797" lon="6.03233">
        <ele>250.79</ele>
        <time>2018-12-12T10:53:40Z</time>
      </trkpt>
      <trkpt lat="47.23786" lon="6.03209">
        <ele>248.12</ele>
        <time>2018-12-12T10:54:02Z</time>
      </trkpt>
      <trkpt lat="47.23769" lon="6.03199">
        <ele>250.79</ele>
        <time>2018-12-12T10:54:15Z</time>
      </trkpt>
      <trkpt lat="47.23755" lon="6.03181">
        <ele>253.79</ele>
        <time>2018-12-12T10:54:32Z</time>
      </trkpt>
      <trkpt lat="47.2374" lon="6.03163">
        <ele>252.1</ele>
        <time>2018-12-12T10:54:45Z</time>
      </trkpt>
      <trkpt lat="47.23727" lon="6.03144">
        <ele>253.79</ele>
        <time>2018-12-12T10:55:02Z</time>
      </trkpt>
      <trkpt lat="47.23711" lon="6.03131">
        <ele>254.77</ele>
        <time>2018-12-12T10:56:58Z</time>
      </trkpt>
      <trkpt lat="47.23699" lon="6.0311">
        <ele>248.77</ele>
        <time>2018-12-12T10:57:16Z</time>
      </trkpt>
      <trkpt lat="47.23684" lon="6.03096">
        <ele>250.77</ele>
        <time>2018-12-12T10:57:32Z</time>
      </trkpt>
      <trkpt lat="47.23668" lon="6.03082">
        <ele>257.75</ele>
        <time>2018-12-12T10:57:58Z</time>
      </trkpt>
      <trkpt lat="47.23654" lon="6.03065">
        <ele>257.19</ele>
        <time>2018-12-12T10:58:23Z</time>
      </trkpt>
      <trkpt lat="47.23643" lon="6.03042">
        <ele>258.79</ele>
        <time>2018-12-12T10:58:39Z</time>
      </trkpt>
      <trkpt lat="47.23635" lon="6.03018">
        <ele>256.78</ele>
        <time>2018-12-12T10:58:54Z</time>
      </trkpt>
      <trkpt lat="47.23622" lon="6.02998">
        <ele>257.47</ele>
        <time>2018-12-12T10:59:10Z</time>
      </trkpt>
      <trkpt lat="47.2362" lon="6.0297">
        <ele>257.79</ele>
        <time>2018-12-12T10:59:29Z</time>
      </trkpt>
      <trkpt lat="47.23614" lon="6.02944">
        <ele>256.79</ele>
        <time>2018-12-12T10:59:44Z</time>
      </trkpt>
      <trkpt lat="47.23624" lon="6.02922">
        <ele>257.09</ele>
        <time>2018-12-12T10:59:57Z</time>
      </trkpt>
    </trkseg>
  </trk>
</gpx>